MSC Bremen — A8LK7 — position and weather

sailwx.info

Track history (hours):
 
Tides and Currents Weather Stations Pressure Air Temp Water Temp Dewpoint Dewpoint Depression Visibility Wind Speed Wind Dir Waves Ship Positions

MSC Bremen

Last reported at 2016-Jul-26 06:00 UTC. Time now 2016-Jul-27 01:17 UTC.
Position N 48°48' W 008°00'.

Length 294 m; ; draft 13.7 m.

Type: Ship (hazmat cat A). MMSI: 636091270.

Wind from 360 at 8 knots

Waves 1.0 meters (3 feet), 12 second period

Barometer 1023.0 mb
Air temperature 16.0 ° C
Visibility: greater than 5.4 NM
Dewpoint 10.8 ° C

Date/timePositionNaut miles runAvg speedWind from/ knotsBaromVisibWave heightAir tempDewpointWater temp
2016-Jul-26 06:00N 48°48' W 008°00'12322.7 360 / 81023.0 5.4 1.016.010.8
2016-Jul-26 00:33N 49°47' W 005°14'2121.5
2016-Jul-25 23:33N 49°50' W 004°41'2120.7
2016-Jul-25 22:34N 49°53' W 004°10'2020.1
2016-Jul-25 21:33N 49°55' W 003°38'2020.4
2016-Jul-25 20:33N 49°57' W 003°07'2121.4
2016-Jul-25 19:33N 50°01' W 002°34'5123.6
2016-Jul-25 17:24N 49°52' W 001°16'2024.1
2016-Jul-25 16:33N 49°43' W 000°48'2222.1
2016-Jul-25 15:33N 49°34' W 000°17'1615.7
2016-Jul-25 14:33N 49°28' E 000°06'2 2.2
2016-Jul-25 13:31N 49°28' E 000°09'0 0.0
2016-Jul-25 12:31N 49°28' E 000°09'0 0.0
2016-Jul-25 11:31N 49°28' E 000°09'0 0.0
2016-Jul-25 10:31N 49°28' E 000°09'0 0.0
2016-Jul-25 09:31N 49°28' E 000°09'0 0.0
2016-Jul-25 08:31N 49°28' E 000°09'0 0.0
2016-Jul-25 07:31N 49°28' E 000°09'0 0.0
2016-Jul-25 06:31N 49°28' E 000°09'0 0.0
2016-Jul-25 05:31N 49°28' E 000°09'0 0.0
2016-Jul-25 04:31N 49°28' E 000°09'0 0.0
2016-Jul-25 03:31N 49°28' E 000°09'0 0.3
2016-Jul-25 02:34N 49°27' E 000°09'1010.2
2016-Jul-25 01:33N 49°31' W 000°06'5 5.0
2016-Jul-25 00:33N 49°35' W 000°11'9 8.6
2016-Jul-24 23:33N 49°43' W 000°13'9 8.7
2016-Jul-24 22:33N 49°52' W 000°11'1211.9
2016-Jul-24 21:34N 50°04' W 000°09'1312.6
2016-Jul-24 20:33N 50°16' W 000°13'1111.4
2016-Jul-24 19:33N 50°27' W 000°09'1313.4
2016-Jul-24 18:33N 50°31' E 000°11'1313.4
2016-Jul-24 17:33N 50°35' E 000°31'1312.5
2016-Jul-24 16:32N 50°41' E 000°49'1111.4
2016-Jul-24 15:33N 50°47' E 001°03'1010.1
2016-Jul-24 14:31N 50°54' E 001°17'1010.1
2016-Jul-24 13:33N 51°01' E 001°26'1211.5
2016-Jul-24 12:33N 51°09' E 001°40'1413.6
2016-Jul-24 11:33N 51°19' E 001°53'1211.9
2016-Jul-24 10:33N 51°21' E 002°12'1313.1
2016-Jul-24 09:33N 51°23' E 002°33'1313.3
2016-Jul-24 08:33N 51°25' E 002°54'2019.9
2016-Jul-24 07:33N 51°25' E 003°26'1211.9
2016-Jul-24 06:33N 51°22' E 003°44'1111.2
2016-Jul-24 05:33N 51°24' E 004°02'9 8.8
2016-Jul-24 04:33N 51°21' E 004°15'3 3.2
2016-Jul-24 03:33N 51°18' E 004°16'0 0.0
2016-Jul-24 02:33N 51°18' E 004°16'0 0.0
2016-Jul-24 01:33N 51°18' E 004°16'0 0.0
2016-Jul-24 00:33N 51°18' E 004°16'0 0.0
2016-Jul-23 23:33N 51°18' E 004°16'0 0.0
2016-Jul-23 22:30N 51°18' E 004°16'0 0.0
2016-Jul-23 21:33N 51°18' E 004°16'0 0.0
2016-Jul-23 20:33N 51°18' E 004°16'0 0.0
2016-Jul-23 19:33N 51°18' E 004°16'0 0.0
2016-Jul-23 18:33N 51°18' E 004°16'0 0.0
2016-Jul-23 17:33N 51°18' E 004°16'0 0.0
2016-Jul-23 16:33N 51°18' E 004°16'0 0.0
2016-Jul-23 15:33N 51°18' E 004°16'0 0.0
2016-Jul-23 14:33N 51°18' E 004°16'0 0.0
2016-Jul-23 13:33N 51°18' E 004°16'0 0.0
2016-Jul-23 12:33N 51°18' E 004°16'2 1.6
2016-Jul-23 11:34N 51°19' E 004°16'6 5.5
2016-Jul-23 10:34N 51°23' E 004°09'7 7.4
2016-Jul-23 09:33N 51°24' E 003°57'8 8.1
2016-Jul-23 08:34N 51°22' E 003°45'7 7.0
2016-Jul-23 07:33N 51°25' E 003°35'1212.2
2016-Jul-23 06:33N 51°25' E 003°16'2311.4
2016-Jul-23 04:34N 51°24' E 002°39'1 1.0
2016-Jul-23 03:33N 51°25' E 002°38'0 0.0
2016-Jul-23 02:33N 51°25' E 002°38'0 0.1
2016-Jul-23 01:33N 51°25' E 002°38'0 0.2
2016-Jul-23 00:33N 51°25' E 002°38'0 0.1
2016-Jul-22 23:34N 51°25' E 002°37'0 0.0
2016-Jul-22 22:33N 51°25' E 002°37'0 0.0
2016-Jul-22 21:33N 51°25' E 002°37'0 0.0
2016-Jul-22 20:33N 51°25' E 002°37'7 6.5
2016-Jul-22 19:33N 51°22' E 002°28'1717.3
2016-Jul-22 18:33N 51°22' E 002°01'1919.1
2016-Jul-22 17:33N 51°38' E 001°46'1615.7
2016-Jul-22 16:33N 51°52' E 001°34'1111.2
2016-Jul-22 15:34N 51°57' E 001°18'1 0.5
2016-Jul-22 14:31N 51°58' E 001°18'0 0.0
2016-Jul-22 13:31N 51°58' E 001°18'0 0.0
2016-Jul-22 12:31N 51°58' E 001°18'0 0.0
2016-Jul-22 11:31N 51°58' E 001°18'0 0.0
2016-Jul-22 10:31N 51°58' E 001°18'0 0.0
2016-Jul-22 09:33N 51°58' E 001°18'0 0.0
2016-Jul-22 08:31N 51°58' E 001°18'0 0.0
2016-Jul-22 07:31N 51°58' E 001°18'0 0.0
2016-Jul-22 04:31N 51°58' E 001°18'0 0.0
2016-Jul-22 03:31N 51°58' E 001°18'0 0.2
2016-Jul-22 02:31N 51°57' E 001°18'5 4.9
2016-Jul-22 01:34N 51°56' E 001°25'1111.3
2016-Jul-22 00:33N 51°53' E 001°42'1110.9
2016-Jul-21 23:33N 52°02' E 001°52'1313.1
2016-Jul-21 22:33N 52°10' E 002°08'1313.1
2016-Jul-21 21:33N 52°17' E 002°26'1312.7
2016-Jul-21 20:33N 52°23' E 002°45'1514.8
2016-Jul-21 19:33N 52°30' E 003°06'1313.3
2016-Jul-21 18:33N 52°34' E 003°27'1313.4
2016-Jul-21 17:33N 52°45' E 003°40'1313.3
2016-Jul-21 16:34N 52°55' E 003°55'1313.2
2016-Jul-21 15:34N 53°04' E 004°11'1413.5
2016-Jul-21 14:32N 53°14' E 004°27'1515.2
2016-Jul-21 13:33N 53°27' E 004°38'1615.8
2016-Jul-21 12:33N 53°35' E 005°01'1615.9
2016-Jul-21 11:34N 53°40' E 005°26'1514.7
2016-Jul-21 10:33N 53°44' E 005°50'1514.9
2016-Jul-21 09:33N 53°48' E 006°14'1616.4
2016-Jul-21 08:33N 53°52' E 006°41'1817.9
2016-Jul-21 07:33N 53°56' E 007°11'1817.5
2016-Jul-21 06:33N 53°58' E 007°40'1515.3
2016-Jul-21 05:33N 53°51' E 008°03'2019.9
2016-Jul-21 04:33N 53°37' E 008°28'4 3.5
2016-Jul-21 03:33N 53°35' E 008°32'0 0.0
2016-Jul-21 02:33N 53°35' E 008°32'0 0.0
2016-Jul-21 01:33N 53°35' E 008°32'0 0.0
2016-Jul-21 00:33N 53°35' E 008°32'0 0.0
2016-Jul-20 23:33N 53°35' E 008°32'0 0.0
2016-Jul-20 22:33N 53°35' E 008°32'0 0.0
2016-Jul-20 21:33N 53°35' E 008°32'0 0.0
2016-Jul-20 20:33N 53°35' E 008°32'0 0.0
2016-Jul-20 19:33N 53°35' E 008°32'0 0.0
2016-Jul-20 18:33N 53°35' E 008°32'0 0.0
2016-Jul-20 17:33N 53°35' E 008°32'0 0.0
2016-Jul-20 16:33N 53°35' E 008°32'0 0.0
2016-Jul-20 15:33N 53°35' E 008°32'0 0.0
2016-Jul-20 14:33N 53°35' E 008°32'0 0.0
2016-Jul-20 13:33N 53°35' E 008°32'0 0.0
2016-Jul-20 12:33N 53°35' E 008°32'0 0.0
2016-Jul-20 11:30N 53°35' E 008°32'0 0.0
2016-Jul-20 10:33N 53°35' E 008°32'0 0.0
2016-Jul-20 09:33N 53°35' E 008°32'0 0.0
2016-Jul-20 08:33N 53°35' E 008°32'0 0.0
2016-Jul-20 07:33N 53°35' E 008°32'0 0.0
2016-Jul-20 06:33N 53°35' E 008°32'0 0.0
2016-Jul-20 05:33N 53°35' E 008°32'0 0.0
2016-Jul-20 04:33N 53°35' E 008°32'8 7.6
2016-Jul-20 03:33N 53°40' E 008°23'1313.3
2016-Jul-20 02:34N 53°49' E 008°07'1312.8
2016-Jul-20 01:33N 53°55' E 007°47'5 5.0
2016-Jul-20 00:33N 53°52' E 007°54'3 2.7
2016-Jul-19 23:28N 53°54' E 007°52'0 0.2
2016-Jul-19 22:28N 53°54' E 007°52'0 0.0
2016-Jul-19 21:31N 53°55' E 007°52'0 0.0
2016-Jul-19 20:28N 53°55' E 007°52'0 0.0
2016-Jul-19 19:31N 53°55' E 007°52'0 0.0
2016-Jul-19 18:31N 53°54' E 007°52'0 0.2
2016-Jul-19 17:31N 53°54' E 007°52'0 0.1
2016-Jul-19 16:31N 53°55' E 007°52'0 0.0
2016-Jul-19 15:28N 53°55' E 007°52'0 0.0
2016-Jul-19 14:31N 53°55' E 007°52'0 0.0
2016-Jul-19 13:31N 53°55' E 007°52'0 0.2
2016-Jul-19 12:28N 53°55' E 007°52'0 0.1
2016-Jul-19 11:31N 53°55' E 007°52'0 0.0
2016-Jul-19 10:28N 53°55' E 007°52'0 0.0
2016-Jul-19 09:31N 53°55' E 007°52'0 0.0
2016-Jul-19 08:28N 53°55' E 007°52'0 0.0
2016-Jul-19 07:31N 53°55' E 007°52'0 0.0
2016-Jul-19 04:28N 53°55' E 007°52'0 0.2
2016-Jul-19 03:31N 53°55' E 007°52'0 0.1
2016-Jul-19 02:33N 53°55' E 007°52'1212.1
2016-Jul-19 01:33N 53°54' E 007°31'1312.6
2016-Jul-19 00:33N 53°52' E 007°10'1414.1
2016-Jul-18 23:34N 53°48' E 006°47'1414.3
2016-Jul-18 22:33N 53°45' E 006°24'1514.6
2016-Jul-18 21:33N 53°41' E 006°00'1515.1
2016-Jul-18 20:33N 53°36' E 005°36'1615.6
2016-Jul-18 19:34N 53°31' E 005°11'1616.2
2016-Jul-18 18:33N 53°25' E 004°46'1616.1
2016-Jul-18 17:33N 53°11' E 004°31'1616.3
2016-Jul-18 16:33N 52°57' E 004°18'1616.3
2016-Jul-18 15:33N 52°43' E 004°04'1615.7
2016-Jul-18 14:33N 52°32' E 003°46'1616.2
2016-Jul-18 13:33N 52°21' E 003°26'1616.3
2016-Jul-18 12:33N 52°09' E 003°08'1616.1
2016-Jul-18 11:33N 51°57' E 002°52'1615.8
2016-Jul-18 10:33N 51°45' E 002°35'1716.7
2016-Jul-18 09:33N 51°32' E 002°17'1515.4
2016-Jul-18 08:33N 51°18' E 002°06'1414.4
2016-Jul-18 07:33N 51°09' E 001°49'1414.4
2016-Jul-18 06:34N 50°58' E 001°34'1413.8
2016-Jul-18 05:34N 50°46' E 001°24'1616.0
2016-Jul-18 04:33N 50°34' E 001°07'1717.2
2016-Jul-18 03:33N 50°26' E 000°43'1717.4
2016-Jul-18 02:33N 50°21' E 000°17'1717.2
2016-Jul-18 01:33N 50°16' W 000°09'1716.9
2016-Jul-18 00:33N 50°11' W 000°34'1716.7
2016-Jul-17 23:33N 50°07' W 000°60'1717.1
2016-Jul-17 22:33N 50°03' W 001°26'1616.2
2016-Jul-17 21:33N 49°60' W 001°50'1817.9
2016-Jul-17 20:33N 49°56' W 002°17'1919.3
2016-Jul-17 19:33N 49°51' W 002°46'1919.1
2016-Jul-17 18:33N 49°46' W 003°15'1918.9
2016-Jul-17 17:33N 49°44' W 003°44'1918.8
2016-Jul-17 16:33N 49°43' W 004°13'1919.2
2016-Jul-17 15:33N 49°41' W 004°43'2319.2
2016-Jul-17 14:23N 49°39' W 005°17'2319.5
2016-Jul-17 13:13N 49°39' W 005°53'3219.1
2016-Jul-17 11:33N 49°39' W 006°42'2019.9
2016-Jul-17 10:33N 49°41' W 007°12'2019.6
2016-Jul-17 09:33N 49°42' W 007°42'2019.5
2016-Jul-17 08:33N 49°44' W 008°13'2020.2
2016-Jul-17 07:33N 49°46' W 008°44'2120.6
2016-Jul-17 06:33N 49°48' W 009°15'4220.9
2016-Jul-17 04:33N 49°50' W 010°20'2321.1
2016-Jul-17 03:29N 49°51' W 010°55'1718.0
2016-Jul-17 02:33N 49°52' W 011°21'1919.1
2016-Jul-17 01:33N 49°53' W 011°51'2120.8
2016-Jul-17 00:34N 49°53' W 012°23'2120.5
2016-Jul-16 23:33N 49°54' W 012°54'2120.5
2016-Jul-16 22:33N 49°54' W 013°27'  
Track history (hours):
 
Tides and Currents Weather Stations Pressure Air Temp Water Temp Dewpoint Dewpoint Depression Visibility Wind Speed Wind Dir Waves Ship Positions

MSC Bremen

Last reported at 2016-Jul-26 06:00 UTC. Time now 2016-Jul-27 01:17 UTC.
Position N 48°48' W 008°00'.

Length 294 m; ; draft 13.7 m.

Type: Ship (hazmat cat A). MMSI: 636091270.

Wind from 360 at 8 knots

Waves 1.0 meters (3 feet), 12 second period

Barometer 1023.0 mb
Air temperature 16.0 ° C
Visibility: greater than 5.4 NM
Dewpoint 10.8 ° C

Date/timePositionNaut miles runAvg speedWind from/ knotsBaromVisibWave heightAir tempDewpointWater temp
2016-Jul-26 06:00N 48°48' W 008°00'12322.7 360 / 81023.0 5.4 1.016.010.8
2016-Jul-26 00:33N 49°47' W 005°14'2121.5
2016-Jul-25 23:33N 49°50' W 004°41'2120.7
2016-Jul-25 22:34N 49°53' W 004°10'2020.1
2016-Jul-25 21:33N 49°55' W 003°38'2020.4
2016-Jul-25 20:33N 49°57' W 003°07'2121.4
2016-Jul-25 19:33N 50°01' W 002°34'5123.6
2016-Jul-25 17:24N 49°52' W 001°16'2024.1
2016-Jul-25 16:33N 49°43' W 000°48'2222.1
2016-Jul-25 15:33N 49°34' W 000°17'1615.7
2016-Jul-25 14:33N 49°28' E 000°06'2 2.2
2016-Jul-25 13:31N 49°28' E 000°09'0 0.0
2016-Jul-25 12:31N 49°28' E 000°09'0 0.0
2016-Jul-25 11:31N 49°28' E 000°09'0 0.0
2016-Jul-25 10:31N 49°28' E 000°09'0 0.0
2016-Jul-25 09:31N 49°28' E 000°09'0 0.0
2016-Jul-25 08:31N 49°28' E 000°09'0 0.0
2016-Jul-25 07:31N 49°28' E 000°09'0 0.0
2016-Jul-25 06:31N 49°28' E 000°09'0 0.0
2016-Jul-25 05:31N 49°28' E 000°09'0 0.0
2016-Jul-25 04:31N 49°28' E 000°09'0 0.0
2016-Jul-25 03:31N 49°28' E 000°09'0 0.3
2016-Jul-25 02:34N 49°27' E 000°09'1010.2
2016-Jul-25 01:33N 49°31' W 000°06'5 5.0
2016-Jul-25 00:33N 49°35' W 000°11'9 8.6
2016-Jul-24 23:33N 49°43' W 000°13'9 8.7
2016-Jul-24 22:33N 49°52' W 000°11'1211.9
2016-Jul-24 21:34N 50°04' W 000°09'1312.6
2016-Jul-24 20:33N 50°16' W 000°13'1111.4
2016-Jul-24 19:33N 50°27' W 000°09'1313.4
2016-Jul-24 18:33N 50°31' E 000°11'1313.4
2016-Jul-24 17:33N 50°35' E 000°31'1312.5
2016-Jul-24 16:32N 50°41' E 000°49'1111.4
2016-Jul-24 15:33N 50°47' E 001°03'1010.1
2016-Jul-24 14:31N 50°54' E 001°17'1010.1
2016-Jul-24 13:33N 51°01' E 001°26'1211.5
2016-Jul-24 12:33N 51°09' E 001°40'1413.6
2016-Jul-24 11:33N 51°19' E 001°53'1211.9
2016-Jul-24 10:33N 51°21' E 002°12'1313.1
2016-Jul-24 09:33N 51°23' E 002°33'1313.3
2016-Jul-24 08:33N 51°25' E 002°54'2019.9
2016-Jul-24 07:33N 51°25' E 003°26'1211.9
2016-Jul-24 06:33N 51°22' E 003°44'1111.2
2016-Jul-24 05:33N 51°24' E 004°02'9 8.8
2016-Jul-24 04:33N 51°21' E 004°15'3 3.2
2016-Jul-24 03:33N 51°18' E 004°16'0 0.0
2016-Jul-24 02:33N 51°18' E 004°16'0 0.0
2016-Jul-24 01:33N 51°18' E 004°16'0 0.0
2016-Jul-24 00:33N 51°18' E 004°16'0 0.0
2016-Jul-23 23:33N 51°18' E 004°16'0 0.0
2016-Jul-23 22:30N 51°18' E 004°16'0 0.0
2016-Jul-23 21:33N 51°18' E 004°16'0 0.0
2016-Jul-23 20:33N 51°18' E 004°16'0 0.0
2016-Jul-23 19:33N 51°18' E 004°16'0 0.0
2016-Jul-23 18:33N 51°18' E 004°16'0 0.0
2016-Jul-23 17:33N 51°18' E 004°16'0 0.0
2016-Jul-23 16:33N 51°18' E 004°16'0 0.0
2016-Jul-23 15:33N 51°18' E 004°16'0 0.0
2016-Jul-23 14:33N 51°18' E 004°16'0 0.0
2016-Jul-23 13:33N 51°18' E 004°16'0 0.0
2016-Jul-23 12:33N 51°18' E 004°16'2 1.6
2016-Jul-23 11:34N 51°19' E 004°16'6 5.5
2016-Jul-23 10:34N 51°23' E 004°09'7 7.4
2016-Jul-23 09:33N 51°24' E 003°57'8 8.1
2016-Jul-23 08:34N 51°22' E 003°45'7 7.0
2016-Jul-23 07:33N 51°25' E 003°35'1212.2
2016-Jul-23 06:33N 51°25' E 003°16'2311.4
2016-Jul-23 04:34N 51°24' E 002°39'1 1.0
2016-Jul-23 03:33N 51°25' E 002°38'0 0.0
2016-Jul-23 02:33N 51°25' E 002°38'0 0.1
2016-Jul-23 01:33N 51°25' E 002°38'0 0.2
2016-Jul-23 00:33N 51°25' E 002°38'0 0.1
2016-Jul-22 23:34N 51°25' E 002°37'0 0.0
2016-Jul-22 22:33N 51°25' E 002°37'0 0.0
2016-Jul-22 21:33N 51°25' E 002°37'0 0.0
2016-Jul-22 20:33N 51°25' E 002°37'7 6.5
2016-Jul-22 19:33N 51°22' E 002°28'1717.3
2016-Jul-22 18:33N 51°22' E 002°01'1919.1
2016-Jul-22 17:33N 51°38' E 001°46'1615.7
2016-Jul-22 16:33N 51°52' E 001°34'1111.2
2016-Jul-22 15:34N 51°57' E 001°18'1 0.5
2016-Jul-22 14:31N 51°58' E 001°18'0 0.0
2016-Jul-22 13:31N 51°58' E 001°18'0 0.0
2016-Jul-22 12:31N 51°58' E 001°18'0 0.0
2016-Jul-22 11:31N 51°58' E 001°18'0 0.0
2016-Jul-22 10:31N 51°58' E 001°18'0 0.0
2016-Jul-22 09:33N 51°58' E 001°18'0 0.0
2016-Jul-22 08:31N 51°58' E 001°18'0 0.0
2016-Jul-22 07:31N 51°58' E 001°18'0 0.0
2016-Jul-22 04:31N 51°58' E 001°18'0 0.0
2016-Jul-22 03:31N 51°58' E 001°18'0 0.2
2016-Jul-22 02:31N 51°57' E 001°18'5 4.9
2016-Jul-22 01:34N 51°56' E 001°25'1111.3
2016-Jul-22 00:33N 51°53' E 001°42'1110.9
2016-Jul-21 23:33N 52°02' E 001°52'1313.1
2016-Jul-21 22:33N 52°10' E 002°08'1313.1
2016-Jul-21 21:33N 52°17' E 002°26'1312.7
2016-Jul-21 20:33N 52°23' E 002°45'1514.8
2016-Jul-21 19:33N 52°30' E 003°06'1313.3
2016-Jul-21 18:33N 52°34' E 003°27'1313.4
2016-Jul-21 17:33N 52°45' E 003°40'1313.3
2016-Jul-21 16:34N 52°55' E 003°55'1313.2
2016-Jul-21 15:34N 53°04' E 004°11'1413.5
2016-Jul-21 14:32N 53°14' E 004°27'1515.2
2016-Jul-21 13:33N 53°27' E 004°38'1615.8
2016-Jul-21 12:33N 53°35' E 005°01'1615.9
2016-Jul-21 11:34N 53°40' E 005°26'1514.7
2016-Jul-21 10:33N 53°44' E 005°50'1514.9
2016-Jul-21 09:33N 53°48' E 006°14'1616.4
2016-Jul-21 08:33N 53°52' E 006°41'1817.9
2016-Jul-21 07:33N 53°56' E 007°11'1817.5
2016-Jul-21 06:33N 53°58' E 007°40'1515.3
2016-Jul-21 05:33N 53°51' E 008°03'2019.9
2016-Jul-21 04:33N 53°37' E 008°28'4 3.5
2016-Jul-21 03:33N 53°35' E 008°32'0 0.0
2016-Jul-21 02:33N 53°35' E 008°32'0 0.0
2016-Jul-21 01:33N 53°35' E 008°32'0 0.0
2016-Jul-21 00:33N 53°35' E 008°32'0 0.0
2016-Jul-20 23:33N 53°35' E 008°32'0 0.0
2016-Jul-20 22:33N 53°35' E 008°32'0 0.0
2016-Jul-20 21:33N 53°35' E 008°32'0 0.0
2016-Jul-20 20:33N 53°35' E 008°32'0 0.0
2016-Jul-20 19:33N 53°35' E 008°32'0 0.0
2016-Jul-20 18:33N 53°35' E 008°32'0 0.0
2016-Jul-20 17:33N 53°35' E 008°32'0 0.0
2016-Jul-20 16:33N 53°35' E 008°32'0 0.0
2016-Jul-20 15:33N 53°35' E 008°32'0 0.0
2016-Jul-20 14:33N 53°35' E 008°32'0 0.0
2016-Jul-20 13:33N 53°35' E 008°32'0 0.0
2016-Jul-20 12:33N 53°35' E 008°32'0 0.0
2016-Jul-20 11:30N 53°35' E 008°32'0 0.0
2016-Jul-20 10:33N 53°35' E 008°32'0 0.0
2016-Jul-20 09:33N 53°35' E 008°32'0 0.0
2016-Jul-20 08:33N 53°35' E 008°32'0 0.0
2016-Jul-20 07:33N 53°35' E 008°32'0 0.0
2016-Jul-20 06:33N 53°35' E 008°32'0 0.0
2016-Jul-20 05:33N 53°35' E 008°32'0 0.0
2016-Jul-20 04:33N 53°35' E 008°32'8 7.6
2016-Jul-20 03:33N 53°40' E 008°23'1313.3
2016-Jul-20 02:34N 53°49' E 008°07'1312.8
2016-Jul-20 01:33N 53°55' E 007°47'5 5.0
2016-Jul-20 00:33N 53°52' E 007°54'3 2.7
2016-Jul-19 23:28N 53°54' E 007°52'0 0.2
2016-Jul-19 22:28N 53°54' E 007°52'0 0.0
2016-Jul-19 21:31N 53°55' E 007°52'0 0.0
2016-Jul-19 20:28N 53°55' E 007°52'0 0.0
2016-Jul-19 19:31N 53°55' E 007°52'0 0.0
2016-Jul-19 18:31N 53°54' E 007°52'0 0.2
2016-Jul-19 17:31N 53°54' E 007°52'0 0.1
2016-Jul-19 16:31N 53°55' E 007°52'0 0.0
2016-Jul-19 15:28N 53°55' E 007°52'0 0.0
2016-Jul-19 14:31N 53°55' E 007°52'0 0.0
2016-Jul-19 13:31N 53°55' E 007°52'0 0.2
2016-Jul-19 12:28N 53°55' E 007°52'0 0.1
2016-Jul-19 11:31N 53°55' E 007°52'0 0.0
2016-Jul-19 10:28N 53°55' E 007°52'0 0.0
2016-Jul-19 09:31N 53°55' E 007°52'0 0.0
2016-Jul-19 08:28N 53°55' E 007°52'0 0.0
2016-Jul-19 07:31N 53°55' E 007°52'0 0.0
2016-Jul-19 04:28N 53°55' E 007°52'0 0.2
2016-Jul-19 03:31N 53°55' E 007°52'0 0.1
2016-Jul-19 02:33N 53°55' E 007°52'1212.1
2016-Jul-19 01:33N 53°54' E 007°31'1312.6
2016-Jul-19 00:33N 53°52' E 007°10'1414.1
2016-Jul-18 23:34N 53°48' E 006°47'1414.3
2016-Jul-18 22:33N 53°45' E 006°24'1514.6
2016-Jul-18 21:33N 53°41' E 006°00'1515.1
2016-Jul-18 20:33N 53°36' E 005°36'1615.6
2016-Jul-18 19:34N 53°31' E 005°11'1616.2
2016-Jul-18 18:33N 53°25' E 004°46'1616.1
2016-Jul-18 17:33N 53°11' E 004°31'1616.3
2016-Jul-18 16:33N 52°57' E 004°18'1616.3
2016-Jul-18 15:33N 52°43' E 004°04'1615.7
2016-Jul-18 14:33N 52°32' E 003°46'1616.2
2016-Jul-18 13:33N 52°21' E 003°26'1616.3
2016-Jul-18 12:33N 52°09' E 003°08'1616.1
2016-Jul-18 11:33N 51°57' E 002°52'1615.8
2016-Jul-18 10:33N 51°45' E 002°35'1716.7
2016-Jul-18 09:33N 51°32' E 002°17'1515.4
2016-Jul-18 08:33N 51°18' E 002°06'1414.4
2016-Jul-18 07:33N 51°09' E 001°49'1414.4
2016-Jul-18 06:34N 50°58' E 001°34'1413.8
2016-Jul-18 05:34N 50°46' E 001°24'1616.0
2016-Jul-18 04:33N 50°34' E 001°07'1717.2
2016-Jul-18 03:33N 50°26' E 000°43'1717.4
2016-Jul-18 02:33N 50°21' E 000°17'1717.2
2016-Jul-18 01:33N 50°16' W 000°09'1716.9
2016-Jul-18 00:33N 50°11' W 000°34'1716.7
2016-Jul-17 23:33N 50°07' W 000°60'1717.1
2016-Jul-17 22:33N 50°03' W 001°26'1616.2
2016-Jul-17 21:33N 49°60' W 001°50'1817.9
2016-Jul-17 20:33N 49°56' W 002°17'1919.3
2016-Jul-17 19:33N 49°51' W 002°46'1919.1
2016-Jul-17 18:33N 49°46' W 003°15'1918.9
2016-Jul-17 17:33N 49°44' W 003°44'1918.8
2016-Jul-17 16:33N 49°43' W 004°13'1919.2
2016-Jul-17 15:33N 49°41' W 004°43'2319.2
2016-Jul-17 14:23N 49°39' W 005°17'2319.5
2016-Jul-17 13:13N 49°39' W 005°53'3219.1
2016-Jul-17 11:33N 49°39' W 006°42'2019.9
2016-Jul-17 10:33N 49°41' W 007°12'2019.6
2016-Jul-17 09:33N 49°42' W 007°42'2019.5
2016-Jul-17 08:33N 49°44' W 008°13'2020.2
2016-Jul-17 07:33N 49°46' W 008°44'2120.6
2016-Jul-17 06:33N 49°48' W 009°15'4220.9
2016-Jul-17 04:33N 49°50' W 010°20'2321.1
2016-Jul-17 03:29N 49°51' W 010°55'1718.0
2016-Jul-17 02:33N 49°52' W 011°21'1919.1
2016-Jul-17 01:33N 49°53' W 011°51'2120.8
2016-Jul-17 00:34N 49°53' W 012°23'2120.5
2016-Jul-16 23:33N 49°54' W 012°54'2120.5
2016-Jul-16 22:33N 49°54' W 013°27'  

Dump ship's entire track history